createdAt,value
2023-03-31T00:00:02.984Z,44.96
2023-03-31T00:01:02.936Z,44.96
2023-03-31T00:02:02.975Z,44.96
2023-03-31T00:03:03.174Z,44.94
2023-03-31T00:04:03.273Z,44.94
2023-03-31T00:05:03.108Z,44.95
2023-03-31T00:06:03.415Z,44.92
2023-03-31T00:07:03.164Z,44.92
2023-03-31T00:08:03.190Z,44.92
2023-03-31T00:09:03.204Z,44.92
2023-03-31T00:10:16.539Z,44.90
2023-03-31T00:11:04.246Z,44.94
2023-03-31T00:12:03.211Z,44.90
2023-03-31T00:13:03.195Z,44.89
2023-03-31T00:14:03.187Z,44.91
2023-03-31T00:15:03.175Z,44.88
2023-03-31T00:16:03.251Z,44.88
2023-03-31T00:17:03.252Z,44.86
2023-03-31T00:18:03.163Z,44.87
2023-03-31T00:19:03.113Z,44.87
2023-03-31T00:20:03.104Z,44.87
2023-03-31T00:21:03.119Z,44.86
2023-03-31T00:22:03.175Z,44.85
2023-03-31T00:23:03.201Z,44.86
2023-03-31T00:24:03.247Z,44.82
2023-03-31T00:25:03.274Z,44.84
2023-03-31T00:26:03.501Z,44.83
2023-03-31T00:27:03.341Z,44.83
2023-03-31T00:28:03.373Z,44.82
2023-03-31T00:29:03.402Z,44.81
2023-03-31T00:30:03.444Z,44.83
2023-03-31T00:31:03.579Z,44.82
2023-03-31T00:32:03.600Z,44.81
2023-03-31T00:33:03.644Z,44.79
2023-03-31T00:34:03.595Z,44.78
2023-03-31T00:35:03.631Z,44.79
2023-03-31T00:36:03.987Z,44.80
2023-03-31T00:37:03.718Z,44.77
2023-03-31T00:38:03.743Z,44.75
2023-03-31T00:39:03.768Z,44.76
2023-03-31T00:40:03.810Z,44.78
2023-03-31T00:41:03.836Z,44.75
2023-03-31T00:42:03.893Z,44.73
2023-03-31T00:43:03.921Z,44.72
2023-03-31T00:44:03.949Z,44.73
2023-03-31T00:45:03.985Z,44.74
2023-03-31T00:46:04.212Z,44.73
2023-03-31T00:47:04.058Z,44.71
2023-03-31T00:48:04.204Z,44.69
2023-03-31T00:49:04.139Z,44.67
2023-03-31T00:50:04.213Z,44.72
2023-03-31T00:51:04.227Z,44.71
2023-03-31T00:52:04.242Z,44.68
2023-03-31T00:53:04.292Z,44.67
2023-03-31T00:54:04.402Z,44.67
2023-03-31T00:55:04.403Z,44.65
2023-03-31T00:56:04.722Z,44.66
2023-03-31T00:57:04.460Z,44.66
2023-03-31T00:58:04.482Z,44.64
2023-03-31T00:59:04.734Z,44.65
2023-03-31T01:00:04.558Z,44.66
2023-03-31T01:01:04.626Z,44.64
2023-03-31T01:02:04.659Z,44.63
2023-03-31T01:03:04.760Z,44.66
2023-03-31T01:04:04.847Z,44.63
2023-03-31T01:05:04.739Z,44.63
2023-03-31T01:06:04.989Z,44.61
2023-03-31T01:07:04.827Z,44.65
2023-03-31T01:08:04.853Z,44.59
2023-03-31T01:09:04.906Z,44.60
2023-03-31T01:10:04.934Z,44.60
2023-03-31T01:11:04.978Z,44.59
2023-03-31T01:12:05.014Z,44.60
2023-03-31T01:13:05.073Z,44.58
2023-03-31T01:14:05.100Z,44.58
2023-03-31T01:15:05.153Z,44.62
2023-03-31T01:16:05.284Z,44.56
2023-03-31T01:17:05.522Z,44.57
2023-03-31T01:18:05.287Z,44.57
2023-03-31T01:19:05.287Z,44.55
2023-03-31T01:20:05.352Z,44.56
2023-03-31T01:21:05.373Z,44.58
2023-03-31T01:22:05.428Z,44.53
2023-03-31T01:23:05.522Z,44.53
2023-03-31T01:24:05.503Z,44.51
2023-03-31T01:25:05.534Z,44.53
2023-03-31T01:26:05.720Z,44.54
2023-03-31T01:27:05.615Z,44.54
2023-03-31T01:28:05.654Z,44.55
2023-03-31T01:29:05.696Z,44.52
2023-03-31T01:30:05.726Z,44.54
2023-03-31T01:31:05.889Z,44.51
2023-03-31T01:32:05.806Z,44.49
2023-03-31T01:33:05.923Z,44.47
2023-03-31T01:34:05.879Z,44.50
2023-03-31T01:35:05.919Z,44.47
2023-03-31T01:36:06.149Z,44.44
2023-03-31T01:37:06.002Z,44.46
2023-03-31T01:38:06.041Z,44.43
2023-03-31T01:39:06.083Z,44.42
2023-03-31T01:40:06.104Z,44.43
2023-03-31T01:41:06.137Z,44.37
2023-03-31T01:42:06.188Z,44.38
2023-03-31T01:43:06.222Z,44.38
2023-03-31T01:44:06.262Z,44.36
2023-03-31T01:45:06.288Z,44.33
2023-03-31T01:46:06.451Z,44.33
2023-03-31T01:47:06.351Z,44.34
2023-03-31T01:48:06.419Z,44.31
2023-03-31T01:49:06.422Z,44.31
2023-03-31T01:50:06.474Z,44.28
2023-03-31T01:51:06.492Z,44.27
2023-03-31T01:52:06.555Z,44.26
2023-03-31T01:53:06.543Z,44.27
2023-03-31T01:54:06.583Z,44.23
2023-03-31T01:55:06.621Z,44.21
2023-03-31T01:56:06.961Z,44.20
2023-03-31T01:57:06.705Z,44.22
2023-03-31T01:58:06.721Z,44.20
2023-03-31T01:59:06.746Z,44.22
2023-03-31T02:00:06.774Z,44.18
2023-03-31T02:01:06.820Z,44.18
2023-03-31T02:02:06.863Z,44.17
2023-03-31T02:03:06.970Z,44.15
2023-03-31T02:04:06.917Z,44.14
2023-03-31T02:05:06.953Z,44.14
2023-03-31T02:06:07.498Z,44.15
2023-03-31T02:07:07.039Z,44.11
2023-03-31T02:08:07.073Z,44.11
2023-03-31T02:09:07.099Z,44.08
2023-03-31T02:10:07.158Z,44.09
2023-03-31T02:11:07.176Z,44.09
2023-03-31T02:12:07.203Z,44.09
2023-03-31T02:13:07.246Z,44.08
2023-03-31T02:14:07.270Z,44.09
2023-03-31T02:15:07.311Z,44.08
2023-03-31T02:16:07.537Z,44.07
2023-03-31T02:17:07.391Z,44.08
2023-03-31T02:18:07.408Z,44.08
2023-03-31T02:19:07.437Z,44.04
2023-03-31T02:20:07.496Z,44.06
2023-03-31T02:21:07.496Z,44.02
2023-03-31T02:22:07.538Z,44.02
2023-03-31T02:23:07.570Z,44.04
2023-03-31T02:24:07.593Z,44.05
2023-03-31T02:25:07.644Z,44.02
2023-03-31T02:26:07.976Z,44.02
2023-03-31T02:27:07.696Z,44.00
2023-03-31T02:28:07.734Z,43.99
2023-03-31T02:29:07.757Z,43.97
2023-03-31T02:30:07.788Z,43.96
2023-03-31T02:31:07.871Z,43.99
2023-03-31T02:32:07.852Z,43.98
2023-03-31T02:33:07.893Z,43.98
2023-03-31T02:34:07.911Z,43.93
2023-03-31T02:35:07.953Z,43.97
2023-03-31T02:37:08.026Z,43.96
2023-03-31T02:38:08.067Z,43.95
2023-03-31T02:39:08.101Z,43.96
2023-03-31T02:40:08.144Z,43.92
2023-03-31T02:41:08.177Z,43.95
2023-03-31T02:42:08.202Z,43.94
2023-03-31T02:43:08.248Z,43.93
2023-03-31T02:44:08.283Z,43.94
2023-03-31T02:45:08.410Z,43.89
2023-03-31T02:46:08.738Z,43.90
2023-03-31T02:47:08.410Z,43.89
2023-03-31T02:48:08.430Z,43.87
2023-03-31T02:49:08.470Z,43.87
2023-03-31T02:50:08.512Z,43.89
2023-03-31T02:51:08.676Z,43.88
2023-03-31T02:52:08.585Z,43.86
2023-03-31T02:53:08.638Z,43.89
2023-03-31T02:54:08.672Z,43.89
2023-03-31T02:55:08.710Z,43.90
2023-03-31T02:56:08.753Z,43.88
2023-03-31T02:57:08.849Z,43.88
2023-03-31T02:58:08.828Z,43.85
2023-03-31T02:59:08.854Z,43.89
2023-03-31T03:00:08.896Z,43.83
2023-03-31T03:01:08.974Z,43.87
2023-03-31T03:02:09.033Z,43.86
2023-03-31T03:03:09.241Z,43.83
2023-03-31T03:04:09.026Z,43.84
2023-03-31T03:05:09.068Z,43.85
2023-03-31T03:06:09.241Z,43.84
2023-03-31T03:07:09.142Z,43.83
2023-03-31T03:08:09.164Z,43.84
2023-03-31T03:09:09.206Z,43.85
2023-03-31T03:10:09.240Z,43.84
2023-03-31T03:11:09.290Z,43.81
2023-03-31T03:12:09.313Z,43.80
2023-03-31T03:13:09.347Z,43.80
2023-03-31T03:14:09.431Z,43.80
2023-03-31T03:15:09.422Z,43.82
2023-03-31T03:16:09.501Z,43.77
2023-03-31T03:17:09.509Z,43.80
2023-03-31T03:18:09.589Z,43.75
2023-03-31T03:19:09.561Z,43.79
2023-03-31T03:20:09.604Z,43.79
2023-03-31T03:21:09.630Z,43.76
2023-03-31T03:22:09.683Z,43.78
2023-03-31T03:23:09.717Z,43.76
2023-03-31T03:24:09.735Z,43.75
2023-03-31T03:25:09.781Z,43.75
2023-03-31T03:26:09.805Z,43.74
2023-03-31T03:27:09.835Z,43.74
2023-03-31T03:28:09.870Z,43.73
2023-03-31T03:29:09.911Z,43.72
2023-03-31T03:30:09.927Z,43.70
2023-03-31T03:31:10.023Z,43.71
2023-03-31T03:32:09.999Z,43.68
2023-03-31T03:33:10.159Z,43.72
2023-03-31T03:34:10.056Z,43.70
2023-03-31T03:35:10.083Z,43.75
2023-03-31T03:36:10.264Z,43.68
2023-03-31T03:37:10.177Z,43.67
2023-03-31T03:38:10.193Z,43.68
2023-03-31T03:39:10.226Z,43.67
2023-03-31T03:40:10.250Z,43.65
2023-03-31T03:41:10.293Z,43.67
2023-03-31T03:42:10.316Z,43.65
2023-03-31T03:43:10.344Z,43.67
2023-03-31T03:44:10.390Z,43.64
2023-03-31T03:45:10.403Z,43.65
2023-03-31T03:46:10.445Z,43.64
2023-03-31T03:47:10.486Z,43.64
2023-03-31T03:48:10.562Z,43.62
2023-03-31T03:49:10.507Z,43.64
2023-03-31T03:50:10.548Z,43.64
2023-03-31T03:51:10.573Z,43.61
2023-03-31T03:52:10.795Z,43.61
2023-03-31T03:53:10.640Z,43.60
2023-03-31T03:54:10.674Z,43.60
2023-03-31T03:55:10.688Z,43.60
2023-03-31T03:56:10.727Z,43.62
2023-03-31T03:57:10.855Z,43.57
2023-03-31T03:58:10.793Z,43.56
2023-03-31T03:59:10.825Z,43.56
2023-03-31T04:00:10.861Z,43.57
2023-03-31T04:01:10.893Z,43.57
2023-03-31T04:02:10.967Z,43.56
2023-03-31T04:03:11.022Z,43.55
2023-03-31T04:04:11.000Z,43.55
2023-03-31T04:05:11.052Z,43.53
2023-03-31T04:06:11.043Z,43.55
2023-03-31T04:07:11.083Z,43.54
2023-03-31T04:08:11.114Z,43.57
2023-03-31T04:09:11.146Z,43.55
2023-03-31T04:10:11.165Z,43.54
2023-03-31T04:11:11.198Z,43.53
2023-03-31T04:12:11.241Z,43.52
2023-03-31T04:13:11.265Z,43.52
2023-03-31T04:14:11.300Z,43.53
2023-03-31T04:15:11.341Z,43.52
2023-03-31T04:16:11.398Z,43.54
2023-03-31T04:17:11.396Z,43.52
2023-03-31T04:18:12.811Z,43.50
2023-03-31T04:19:11.397Z,43.50
2023-03-31T04:20:11.387Z,43.51
2023-03-31T04:21:11.368Z,43.48
2023-03-31T04:22:11.351Z,43.48
2023-03-31T04:23:11.334Z,43.49
2023-03-31T04:24:11.310Z,43.51
2023-03-31T04:25:11.289Z,43.49
2023-03-31T04:26:11.270Z,43.51
2023-03-31T04:27:11.283Z,43.47
2023-03-31T04:28:11.237Z,43.46
2023-03-31T04:29:11.254Z,43.49
2023-03-31T04:30:11.195Z,43.48
2023-03-31T04:31:11.201Z,43.45
2023-03-31T04:32:11.197Z,43.45
2023-03-31T04:33:11.214Z,43.44
2023-03-31T04:34:11.149Z,43.42
2023-03-31T04:35:11.132Z,43.45
2023-03-31T04:36:11.132Z,43.45
2023-03-31T04:37:11.122Z,43.43
2023-03-31T04:38:11.101Z,43.42
2023-03-31T04:39:11.082Z,43.43
2023-03-31T04:40:11.061Z,43.41
2023-03-31T04:41:11.044Z,43.44
2023-03-31T04:42:11.037Z,43.40
2023-03-31T04:43:11.014Z,43.41
2023-03-31T04:44:10.999Z,43.41
2023-03-31T04:45:10.982Z,43.39
2023-03-31T04:46:11.007Z,43.37
2023-03-31T04:47:10.959Z,43.40
2023-03-31T04:48:10.945Z,43.38
2023-03-31T04:49:10.949Z,43.37
2023-03-31T04:50:13.578Z,43.37
2023-03-31T04:51:10.917Z,43.39
2023-03-31T04:52:10.914Z,43.34
2023-03-31T04:53:10.914Z,43.34
2023-03-31T04:54:10.884Z,43.34
2023-03-31T04:55:10.894Z,43.32
2023-03-31T04:56:10.861Z,43.33
2023-03-31T04:57:10.880Z,43.34
2023-03-31T04:58:10.850Z,43.34
2023-03-31T04:59:10.843Z,43.35
2023-03-31T05:00:10.827Z,43.34
2023-03-31T05:01:10.846Z,43.34
2023-03-31T05:02:10.813Z,43.34
2023-03-31T05:03:10.875Z,43.32
2023-03-31T05:04:10.767Z,43.31
2023-03-31T05:05:10.762Z,43.32
2023-03-31T05:06:10.746Z,43.29
2023-03-31T05:07:10.735Z,43.32
2023-03-31T05:08:10.711Z,43.32
2023-03-31T05:09:10.708Z,43.32
2023-03-31T05:10:10.676Z,43.30
2023-03-31T05:11:10.671Z,43.29
2023-03-31T05:12:10.654Z,43.26
2023-03-31T05:13:10.702Z,43.27
2023-03-31T05:14:10.727Z,43.26
2023-03-31T05:15:10.792Z,43.27
2023-03-31T05:16:10.874Z,43.25
2023-03-31T05:17:10.857Z,43.27
2023-03-31T05:18:10.894Z,43.26
2023-03-31T05:19:10.908Z,43.23
2023-03-31T05:20:10.933Z,43.26
2023-03-31T05:21:10.988Z,43.23
2023-03-31T05:22:11.010Z,43.28
2023-03-31T05:23:11.039Z,43.41
2023-03-31T05:24:11.080Z,43.41
2023-03-31T05:25:11.110Z,43.36
2023-03-31T05:26:11.151Z,43.42
2023-03-31T05:27:11.190Z,44.47
2023-03-31T05:28:11.220Z,43.98
2023-03-31T05:29:11.243Z,43.85
2023-03-31T05:30:11.281Z,43.69
2023-03-31T05:31:11.337Z,43.56
2023-03-31T05:32:11.410Z,43.57
2023-03-31T05:33:11.370Z,43.56
2023-03-31T05:34:11.398Z,43.55
2023-03-31T05:35:11.436Z,43.59
2023-03-31T05:36:11.504Z,43.60
2023-03-31T05:37:11.488Z,43.61
2023-03-31T05:38:11.516Z,43.62
2023-03-31T05:39:11.562Z,43.62
2023-03-31T05:40:11.602Z,43.62
2023-03-31T05:41:11.619Z,43.61
2023-03-31T05:42:11.655Z,43.64
2023-03-31T05:43:11.687Z,43.68
2023-03-31T05:44:11.721Z,43.63
2023-03-31T05:45:11.746Z,43.62
2023-03-31T05:46:12.112Z,43.66
2023-03-31T05:47:11.846Z,43.63
2023-03-31T05:48:11.867Z,43.66
2023-03-31T05:49:11.871Z,43.65
2023-03-31T05:50:13.346Z,43.61
2023-03-31T05:51:11.870Z,43.62
2023-03-31T05:52:11.854Z,43.63
2023-03-31T05:53:11.864Z,43.62
2023-03-31T05:54:11.814Z,43.60
2023-03-31T05:55:11.799Z,43.61
2023-03-31T05:56:11.778Z,43.63
2023-03-31T05:57:11.869Z,43.62
2023-03-31T05:58:11.752Z,43.59
2023-03-31T05:59:11.735Z,43.60
2023-03-31T06:00:11.709Z,43.61
2023-03-31T06:01:12.027Z,43.59
2023-03-31T06:02:11.674Z,43.58
2023-03-31T06:03:11.712Z,43.57
2023-03-31T06:04:11.665Z,43.52
2023-03-31T06:05:11.609Z,43.54
2023-03-31T06:06:11.584Z,43.52
2023-03-31T06:07:11.576Z,43.53
2023-03-31T06:08:11.550Z,43.51
2023-03-31T06:09:11.530Z,43.54
2023-03-31T06:10:11.510Z,43.52
2023-03-31T06:11:11.490Z,43.51
2023-03-31T06:12:11.482Z,43.49
2023-03-31T06:13:11.479Z,43.51
2023-03-31T06:14:11.448Z,43.51
2023-03-31T06:15:11.420Z,43.50
2023-03-31T06:16:11.512Z,43.50
2023-03-31T06:17:11.393Z,43.51
2023-03-31T06:18:11.438Z,43.49
2023-03-31T06:19:11.375Z,43.49
2023-03-31T06:20:26.640Z,43.50
2023-03-31T06:21:12.336Z,43.51
2023-03-31T06:22:11.311Z,43.87
2023-03-31T06:23:12.261Z,43.84
2023-03-31T06:24:11.337Z,43.86
2023-03-31T06:25:11.254Z,43.86
2023-03-31T06:26:11.245Z,43.80
2023-03-31T06:27:11.228Z,43.76
2023-03-31T06:28:11.216Z,43.74
2023-03-31T06:29:11.187Z,43.67
2023-03-31T06:30:11.166Z,43.66
2023-03-31T06:31:11.206Z,43.67
2023-03-31T06:32:11.152Z,43.69
2023-03-31T06:33:11.155Z,43.68
2023-03-31T06:34:11.151Z,43.66
2023-03-31T06:35:11.163Z,43.63
2023-03-31T06:36:11.216Z,43.64
2023-03-31T06:37:11.203Z,43.65
2023-03-31T06:38:11.235Z,43.65
2023-03-31T06:39:11.473Z,43.65
2023-03-31T06:40:11.278Z,43.62
2023-03-31T06:41:11.337Z,43.65
2023-03-31T06:42:11.337Z,43.64
2023-03-31T06:43:11.382Z,43.62
2023-03-31T06:44:11.390Z,43.60
2023-03-31T06:45:11.408Z,43.57
2023-03-31T06:46:11.684Z,43.55
2023-03-31T06:47:11.463Z,43.55
2023-03-31T06:48:11.506Z,43.53
2023-03-31T06:49:11.543Z,43.49
2023-03-31T06:50:11.572Z,43.44
2023-03-31T06:51:11.599Z,43.40
2023-03-31T06:52:11.650Z,43.38
2023-03-31T06:53:11.733Z,43.34
2023-03-31T06:54:11.666Z,43.35
2023-03-31T06:55:11.689Z,43.35
2023-03-31T06:56:11.715Z,43.35
2023-03-31T06:57:11.924Z,43.38
2023-03-31T06:58:11.764Z,43.38
2023-03-31T06:59:11.816Z,43.38
2023-03-31T07:00:11.825Z,43.40
2023-03-31T07:01:12.457Z,43.44
2023-03-31T07:02:11.906Z,43.43
2023-03-31T07:03:11.956Z,43.42
2023-03-31T07:04:11.932Z,43.42
2023-03-31T07:05:11.965Z,43.43
2023-03-31T07:06:12.012Z,43.45
2023-03-31T07:07:12.024Z,43.45
2023-03-31T07:08:12.041Z,43.43
2023-03-31T07:09:12.072Z,43.43
2023-03-31T07:10:12.144Z,43.42
2023-03-31T07:11:12.110Z,43.40
2023-03-31T07:12:12.164Z,43.40
2023-03-31T07:13:12.175Z,43.40
2023-03-31T07:14:12.235Z,43.37
2023-03-31T07:15:12.221Z,43.38
2023-03-31T07:16:12.271Z,43.37
2023-03-31T07:17:12.258Z,43.37
2023-03-31T07:18:12.316Z,43.36
2023-03-31T07:19:12.320Z,43.34
2023-03-31T07:20:12.341Z,43.37
2023-03-31T07:21:12.490Z,43.36
2023-03-31T07:22:12.394Z,43.36
2023-03-31T07:23:12.420Z,43.39
2023-03-31T07:24:12.447Z,43.36
2023-03-31T07:25:12.471Z,43.35
2023-03-31T07:26:12.493Z,43.36
2023-03-31T07:27:12.511Z,43.35
2023-03-31T07:28:12.537Z,43.36
2023-03-31T07:29:12.568Z,43.34
2023-03-31T07:30:12.589Z,43.36
2023-03-31T07:31:12.639Z,43.34
2023-03-31T07:32:12.814Z,43.32
2023-03-31T07:33:12.750Z,43.33
2023-03-31T07:34:12.728Z,43.34
2023-03-31T07:35:12.756Z,43.30
2023-03-31T07:36:14.198Z,43.29
2023-03-31T07:37:12.800Z,43.29
2023-03-31T07:38:12.826Z,43.26
2023-03-31T07:39:12.864Z,43.29
2023-03-31T07:40:12.907Z,43.26
2023-03-31T07:41:12.980Z,43.26
2023-03-31T07:42:12.958Z,43.25
2023-03-31T07:43:13.008Z,43.25
2023-03-31T07:44:13.061Z,43.23
2023-03-31T07:45:13.035Z,43.18
2023-03-31T07:46:13.124Z,43.21
2023-03-31T07:47:13.108Z,43.19
2023-03-31T07:48:13.171Z,43.23
2023-03-31T07:49:13.160Z,43.20
2023-03-31T07:50:13.190Z,43.20
2023-03-31T07:51:13.224Z,43.18
2023-03-31T07:52:13.260Z,43.20
2023-03-31T07:53:13.288Z,43.16
2023-03-31T07:54:13.325Z,43.15
2023-03-31T07:55:13.366Z,43.12
2023-03-31T07:56:13.386Z,43.13
2023-03-31T07:57:13.449Z,43.11
2023-03-31T07:58:13.439Z,43.09
2023-03-31T07:59:13.469Z,43.08
2023-03-31T08:00:13.481Z,43.09
2023-03-31T08:01:13.512Z,43.05
2023-03-31T08:02:13.556Z,43.12
2023-03-31T08:03:13.595Z,43.16
2023-03-31T08:04:14.392Z,43.23
2023-03-31T08:05:13.605Z,43.13
2023-03-31T08:06:13.628Z,43.28
2023-03-31T08:07:13.638Z,43.31
2023-03-31T08:08:13.650Z,43.33
2023-03-31T08:09:13.665Z,43.48
2023-03-31T08:10:13.668Z,43.50
2023-03-31T08:11:13.657Z,43.61
2023-03-31T08:12:13.672Z,43.64
2023-03-31T08:13:13.655Z,43.68
2023-03-31T08:14:13.698Z,43.58
2023-03-31T08:15:13.659Z,43.60
2023-03-31T08:16:13.708Z,43.24
2023-03-31T08:17:13.624Z,43.07
2023-03-31T08:18:13.651Z,42.89
2023-03-31T08:19:13.606Z,42.93
2023-03-31T08:20:13.636Z,42.94
2023-03-31T08:21:13.606Z,43.10
2023-03-31T08:22:13.593Z,43.19
2023-03-31T08:23:14.551Z,43.29
2023-03-31T08:24:13.527Z,43.40
2023-03-31T08:25:13.514Z,43.42
2023-03-31T08:26:16.425Z,43.42
2023-03-31T08:27:13.464Z,43.45
2023-03-31T08:28:13.436Z,43.64
2023-03-31T08:29:14.298Z,43.88
2023-03-31T08:30:13.376Z,43.98
2023-03-31T08:31:13.364Z,43.59
2023-03-31T08:32:13.329Z,41.42
2023-03-31T08:33:13.287Z,41.25
2023-03-31T08:34:13.264Z,41.17
2023-03-31T08:35:13.265Z,40.54
2023-03-31T08:36:13.281Z,39.98
2023-03-31T08:37:13.874Z,40.96
2023-03-31T08:38:13.209Z,41.42
2023-03-31T08:39:13.206Z,42.03
2023-03-31T08:40:13.196Z,41.86
2023-03-31T08:41:13.170Z,41.93
2023-03-31T08:42:15.960Z,42.01
2023-03-31T08:43:13.136Z,42.06
2023-03-31T08:44:13.104Z,42.51
2023-03-31T08:45:13.078Z,42.41
2023-03-31T08:46:13.097Z,42.47
2023-03-31T08:47:13.039Z,42.62
2023-03-31T08:48:13.047Z,42.65
2023-03-31T08:49:12.985Z,42.66
2023-03-31T08:50:12.958Z,42.81
2023-03-31T08:51:12.935Z,42.81
2023-03-31T08:52:12.876Z,42.96
2023-03-31T08:53:12.881Z,43.11
2023-03-31T08:54:14.998Z,43.27
2023-03-31T08:55:12.813Z,43.30
2023-03-31T08:56:12.837Z,43.44
2023-03-31T08:57:12.936Z,43.52
2023-03-31T08:58:13.387Z,43.74
2023-03-31T08:59:12.877Z,43.92
2023-03-31T09:00:12.929Z,43.93
2023-03-31T09:01:12.970Z,43.83
2023-03-31T09:02:13.018Z,44.10
2023-03-31T09:03:13.051Z,44.34
2023-03-31T09:04:13.159Z,44.37
2023-03-31T09:05:13.040Z,44.43
2023-03-31T09:06:13.158Z,44.61
2023-03-31T09:07:13.063Z,44.79
2023-03-31T09:08:13.110Z,44.88
2023-03-31T09:09:13.103Z,44.90
2023-03-31T09:10:13.155Z,44.95
2023-03-31T09:11:13.229Z,45.21
2023-03-31T09:12:13.164Z,45.52
2023-03-31T09:13:13.204Z,45.42
2023-03-31T09:14:13.190Z,45.56
2023-03-31T09:15:15.892Z,45.66
2023-03-31T09:16:16.169Z,46.02
2023-03-31T09:17:13.201Z,45.73
2023-03-31T09:18:13.895Z,46.17
2023-03-31T09:19:13.033Z,46.11
2023-03-31T09:20:13.013Z,45.98
2023-03-31T09:21:12.949Z,45.90
2023-03-31T09:22:12.923Z,45.93
2023-03-31T09:23:12.886Z,45.96
2023-03-31T09:24:12.870Z,45.93
2023-03-31T09:25:13.355Z,45.96
2023-03-31T09:26:12.764Z,46.03
2023-03-31T09:27:12.730Z,46.07
2023-03-31T09:28:12.702Z,46.19
2023-03-31T09:29:12.653Z,46.25
2023-03-31T09:30:12.612Z,46.28
2023-03-31T09:31:12.566Z,46.31
2023-03-31T09:32:12.531Z,46.31
2023-03-31T09:33:12.537Z,46.36
2023-03-31T09:34:12.446Z,46.45
2023-03-31T09:35:12.412Z,46.48
2023-03-31T09:36:12.426Z,46.62
2023-03-31T09:37:12.903Z,46.65
2023-03-31T09:38:12.332Z,46.67
2023-03-31T09:39:12.291Z,46.74
2023-03-31T09:40:12.254Z,46.80
2023-03-31T09:41:12.218Z,46.88
2023-03-31T09:42:12.184Z,46.92
2023-03-31T09:43:12.147Z,46.93
2023-03-31T09:44:12.134Z,46.88
2023-03-31T09:45:12.101Z,46.88
2023-03-31T09:46:12.122Z,46.81
2023-03-31T09:47:12.104Z,46.92
2023-03-31T09:48:12.037Z,46.87
2023-03-31T09:49:11.985Z,46.80
2023-03-31T09:50:11.959Z,46.83
2023-03-31T09:51:11.929Z,46.87
2023-03-31T09:52:14.289Z,46.86
2023-03-31T09:53:11.873Z,46.86
2023-03-31T09:54:11.845Z,46.84
2023-03-31T09:55:11.824Z,46.84
2023-03-31T09:56:11.796Z,46.74
2023-03-31T09:57:11.787Z,46.74
2023-03-31T09:58:11.736Z,46.68
2023-03-31T09:59:11.706Z,46.72
2023-03-31T10:00:11.717Z,46.67
2023-03-31T10:01:11.783Z,46.66
2023-03-31T10:02:11.646Z,46.61
2023-03-31T10:03:11.633Z,46.67
2023-03-31T10:04:13.312Z,46.62
2023-03-31T10:05:11.558Z,46.63
2023-03-31T10:06:11.542Z,46.61
2023-03-31T10:07:11.520Z,46.58
2023-03-31T10:08:11.494Z,46.60
2023-03-31T10:09:11.453Z,46.58
2023-03-31T10:10:12.792Z,46.53
2023-03-31T10:11:11.380Z,46.54
2023-03-31T10:12:11.362Z,46.57
2023-03-31T10:13:11.328Z,46.53
2023-03-31T10:14:11.350Z,46.52
2023-03-31T10:15:11.290Z,46.52
2023-03-31T10:16:11.314Z,46.91
2023-03-31T10:17:11.233Z,47.39
2023-03-31T10:18:11.249Z,47.29
2023-03-31T10:19:11.188Z,48.14
2023-03-31T10:20:11.185Z,48.22
2023-03-31T10:21:11.140Z,48.67
2023-03-31T10:22:11.490Z,47.83
2023-03-31T10:23:11.078Z,46.80
2023-03-31T10:24:11.072Z,46.72
2023-03-31T10:25:11.076Z,46.74
2023-03-31T10:26:10.993Z,47.25
2023-03-31T10:27:10.974Z,45.93
2023-03-31T10:28:10.931Z,45.53
2023-03-31T10:29:10.920Z,46.50
2023-03-31T10:30:10.903Z,46.21
2023-03-31T10:31:11.036Z,46.42
2023-03-31T10:32:10.820Z,46.49
2023-03-31T10:33:21.840Z,45.44
2023-03-31T10:34:11.756Z,46.74
2023-03-31T10:35:10.748Z,47.41
2023-03-31T10:36:10.713Z,46.57
2023-03-31T10:37:10.673Z,45.69
2023-03-31T10:38:10.644Z,45.70
2023-03-31T10:39:10.623Z,45.27
2023-03-31T10:40:10.584Z,46.37
2023-03-31T10:41:10.628Z,46.05
2023-03-31T10:42:10.516Z,47.09
2023-03-31T10:43:10.468Z,46.87
2023-03-31T10:44:11.898Z,47.10
2023-03-31T10:45:10.561Z,48.36
2023-03-31T10:46:11.380Z,47.64
2023-03-31T10:47:10.605Z,47.66
2023-03-31T10:48:10.650Z,48.52
2023-03-31T10:49:10.643Z,48.40
2023-03-31T10:50:10.664Z,48.49
2023-03-31T10:51:11.615Z,48.49
2023-03-31T10:52:10.660Z,48.61
2023-03-31T10:53:10.614Z,48.72
2023-03-31T10:54:10.542Z,48.82
2023-03-31T10:55:10.499Z,49.02
2023-03-31T10:56:10.458Z,49.51
2023-03-31T10:57:10.433Z,49.17
2023-03-31T10:58:10.375Z,49.22
2023-03-31T10:59:10.375Z,49.37
2023-03-31T11:00:10.300Z,50.07
2023-03-31T11:01:10.284Z,49.56
2023-03-31T11:02:10.334Z,49.48
2023-03-31T11:03:10.278Z,48.82
2023-03-31T11:04:10.133Z,47.19
2023-03-31T11:05:10.074Z,46.66
2023-03-31T11:06:10.045Z,46.73
2023-03-31T11:07:10.012Z,46.14
2023-03-31T11:08:09.983Z,46.22
2023-03-31T11:09:10.126Z,46.37
2023-03-31T11:10:09.934Z,46.61
2023-03-31T11:11:09.862Z,46.95
2023-03-31T11:12:09.835Z,47.08
2023-03-31T11:13:09.791Z,47.28
2023-03-31T11:14:09.753Z,47.41
2023-03-31T11:15:09.734Z,47.42
2023-03-31T11:16:09.790Z,47.45
2023-03-31T11:17:09.726Z,47.49
2023-03-31T11:18:09.663Z,47.58
2023-03-31T11:19:09.604Z,47.62
2023-03-31T11:20:09.555Z,47.66
2023-03-31T11:21:09.588Z,47.67
2023-03-31T11:22:09.480Z,47.72
2023-03-31T11:23:09.442Z,47.71
2023-03-31T11:24:09.435Z,47.79
2023-03-31T11:25:09.395Z,47.78
2023-03-31T11:26:09.360Z,47.84
2023-03-31T11:27:09.327Z,47.82
2023-03-31T11:28:09.297Z,47.81
2023-03-31T11:29:09.259Z,47.84
2023-03-31T11:30:09.232Z,47.85
2023-03-31T11:31:09.203Z,47.88
2023-03-31T11:32:09.247Z,47.91
2023-03-31T11:33:09.166Z,47.91
2023-03-31T11:34:09.118Z,47.92
2023-03-31T11:35:09.087Z,47.94
2023-03-31T11:36:09.116Z,47.93
2023-03-31T11:37:09.028Z,47.97
2023-03-31T11:38:09.038Z,47.98
2023-03-31T11:39:09.032Z,47.99
2023-03-31T11:40:08.993Z,48.03
2023-03-31T11:41:09.121Z,48.01
2023-03-31T11:42:08.915Z,48.06
2023-03-31T11:43:08.916Z,48.05
2023-03-31T11:44:08.876Z,48.06
2023-03-31T11:45:08.852Z,48.04
2023-03-31T11:46:09.053Z,48.04
2023-03-31T11:47:08.813Z,48.07
2023-03-31T11:48:08.857Z,48.05
2023-03-31T11:49:08.738Z,48.03
2023-03-31T11:50:08.719Z,48.05
2023-03-31T11:51:08.690Z,48.05
2023-03-31T11:52:08.688Z,48.05
2023-03-31T11:53:08.650Z,48.01
2023-03-31T11:54:08.629Z,48.04
2023-03-31T11:55:08.605Z,48.05
2023-03-31T11:56:08.835Z,48.09
2023-03-31T11:57:08.610Z,48.04
2023-03-31T11:58:08.607Z,48.03
2023-03-31T11:59:08.535Z,48.01
2023-03-31T12:00:08.481Z,47.99
2023-03-31T12:01:08.457Z,47.99
2023-03-31T12:02:08.435Z,48.01
2023-03-31T12:03:08.495Z,48.00
2023-03-31T12:04:08.427Z,47.96
2023-03-31T12:05:08.369Z,47.99
2023-03-31T12:06:08.604Z,47.97
2023-03-31T12:07:08.300Z,47.94
2023-03-31T12:08:08.273Z,47.95
2023-03-31T12:09:08.233Z,47.95
2023-03-31T12:10:08.201Z,47.94
2023-03-31T12:11:08.193Z,47.93
2023-03-31T12:12:08.151Z,47.93
2023-03-31T12:13:08.149Z,47.91
2023-03-31T12:14:08.111Z,47.91
2023-03-31T12:15:08.077Z,47.87
2023-03-31T12:16:08.319Z,47.86
2023-03-31T12:17:08.032Z,47.85
2023-03-31T12:18:07.991Z,47.84
2023-03-31T12:19:07.978Z,47.88
2023-03-31T12:20:07.951Z,47.84
2023-03-31T12:21:07.923Z,47.85
2023-03-31T12:22:07.912Z,47.84
2023-03-31T12:23:07.872Z,47.80
2023-03-31T12:24:08.510Z,47.81
2023-03-31T12:25:07.808Z,47.77
2023-03-31T12:26:08.110Z,47.81
2023-03-31T12:27:07.773Z,47.76
2023-03-31T12:28:07.743Z,47.77
2023-03-31T12:29:07.725Z,47.81
2023-03-31T12:30:07.698Z,47.75
2023-03-31T12:31:07.757Z,47.72
2023-03-31T12:32:07.640Z,47.74
2023-03-31T12:33:07.764Z,47.72
2023-03-31T12:34:07.601Z,47.70
2023-03-31T12:35:07.568Z,47.72
2023-03-31T12:36:07.792Z,47.70
2023-03-31T12:37:07.512Z,47.70
2023-03-31T12:38:07.503Z,47.68
2023-03-31T12:39:07.502Z,47.70
2023-03-31T12:40:07.493Z,47.69
2023-03-31T12:41:07.501Z,47.68
2023-03-31T12:42:07.488Z,47.65
2023-03-31T12:43:07.510Z,47.64
2023-03-31T12:44:07.523Z,47.62
2023-03-31T12:45:07.486Z,47.63
2023-03-31T12:46:07.690Z,47.62
2023-03-31T12:47:07.616Z,47.61
2023-03-31T12:48:07.523Z,47.59
2023-03-31T12:49:07.511Z,47.61
2023-03-31T12:50:07.494Z,47.59
2023-03-31T12:51:07.553Z,47.58
2023-03-31T12:52:07.493Z,47.55
2023-03-31T12:53:07.505Z,47.56